createdAt,value
2018-09-09T00:00:48.063Z,26.00
2018-09-09T00:03:18.809Z,24.23
2018-09-09T00:05:49.338Z,23.33
2018-09-09T00:08:19.890Z,19.57
2018-09-09T00:10:50.391Z,13.47
2018-09-09T00:13:21.017Z,11.33
2018-09-09T00:15:51.525Z,8.63
2018-09-09T00:18:22.073Z,10.27
2018-09-09T00:20:52.614Z,8.53
2018-09-09T00:23:23.145Z,14.23
2018-09-09T00:25:53.592Z,11.47
2018-09-09T00:28:23.305Z,11.17
2018-09-09T00:30:53.745Z,12.53
2018-09-09T00:33:24.435Z,9.50
2018-09-09T00:35:54.905Z,10.77
2018-09-09T00:38:25.496Z,11.33
2018-09-09T00:40:55.998Z,10.43
2018-09-09T00:43:26.525Z,8.97
2018-09-09T00:45:57.039Z,11.40
2018-09-09T00:48:27.596Z,9.77
2018-09-09T00:51:03.013Z,12.83
2018-09-09T00:53:38.448Z,24.57
2018-09-09T00:56:09.038Z,17.40
2018-09-09T00:58:39.543Z,25.03
2018-09-09T01:01:16.522Z,17.80
2018-09-09T01:03:48.309Z,16.80
2018-09-09T01:06:18.898Z,13.33
2018-09-09T01:08:49.578Z,19.27
2018-09-09T01:11:20.261Z,32.63
2018-09-09T01:13:51.035Z,34.87
2018-09-09T01:16:21.524Z,40.43
2018-09-09T01:18:52.062Z,47.07
2018-09-09T01:21:22.670Z,43.30
2018-09-09T01:23:53.325Z,16.63
2018-09-09T01:26:24.210Z,18.30
2018-09-09T01:28:54.602Z,17.27
2018-09-09T01:31:24.946Z,10.60
2018-09-09T01:33:55.578Z,9.93
2018-09-09T01:36:26.025Z,9.10
2018-09-09T01:38:56.401Z,12.03
2018-09-09T01:41:26.947Z,10.73
2018-09-09T01:43:57.490Z,9.30
2018-09-09T01:46:27.264Z,10.23
2018-09-09T01:48:57.666Z,7.80
2018-09-09T01:51:28.310Z,6.83
2018-09-09T01:53:58.937Z,6.83
2018-09-09T01:56:29.462Z,7.80
2018-09-09T01:58:59.828Z,10.03
2018-09-09T02:01:30.397Z,8.37
2018-09-09T02:04:00.882Z,10.27
2018-09-09T02:06:31.377Z,20.97
2018-09-09T02:09:01.965Z,22.40
2018-09-09T02:11:32.542Z,13.27
2018-09-09T02:14:03.065Z,12.70
2018-09-09T02:16:33.544Z,35.97
2018-09-09T02:19:04.146Z,59.17
2018-09-09T02:21:34.785Z,78.43
2018-09-09T02:24:05.292Z,82.83
2018-09-09T02:26:36.305Z,70.37
2018-09-09T02:29:06.982Z,57.60
2018-09-09T02:31:37.358Z,34.83
2018-09-09T02:34:08.021Z,49.50
2018-09-09T02:36:38.493Z,49.83
2018-09-09T02:39:09.164Z,21.23
2018-09-09T02:41:40.245Z,13.87
2018-09-09T02:44:11.143Z,19.37
2018-09-09T02:46:41.768Z,28.97
2018-09-09T02:49:12.220Z,41.07
2018-09-09T02:51:43.066Z,34.33
2018-09-09T02:54:13.689Z,35.80
2018-09-09T02:56:44.210Z,52.33
2018-09-09T02:59:14.724Z,52.23
2018-09-09T03:01:45.090Z,66.77
2018-09-09T03:04:15.693Z,58.53
2018-09-09T03:06:46.219Z,23.40
2018-09-09T03:09:17.058Z,17.83
2018-09-09T03:11:47.590Z,12.50
2018-09-09T03:14:18.137Z,9.13
2018-09-09T03:16:48.541Z,9.33
2018-09-09T03:19:20.015Z,9.10
2018-09-09T03:21:51.294Z,9.53
2018-09-09T03:24:21.117Z,10.70
2018-09-09T03:26:51.677Z,9.53
2018-09-09T03:29:22.424Z,11.17
2018-09-09T03:31:53.042Z,15.83
2018-09-09T03:34:23.726Z,12.23
2018-09-09T03:36:54.034Z,15.27
2018-09-09T03:39:25.006Z,16.87
2018-09-09T03:41:55.514Z,13.83
2018-09-09T03:44:26.131Z,19.40
2018-09-09T03:46:56.554Z,15.33
2018-09-09T03:49:27.063Z,11.97
2018-09-09T03:51:57.547Z,14.70
2018-09-09T03:54:28.168Z,14.40
2018-09-09T03:56:58.381Z,18.53
2018-09-09T03:59:28.878Z,21.50
2018-09-09T04:01:59.409Z,22.73
2018-09-09T04:04:30.002Z,34.00
2018-09-09T04:07:00.453Z,25.63
2018-09-09T04:09:30.910Z,16.17
2018-09-09T04:12:01.403Z,11.40
2018-09-09T04:14:31.815Z,9.77
2018-09-09T04:17:02.358Z,12.17
2018-09-09T04:19:33.317Z,19.00
2018-09-09T04:22:03.785Z,73.23
2018-09-09T04:24:34.045Z,33.83
2018-09-09T04:27:04.961Z,35.20
2018-09-09T04:29:35.533Z,30.57
2018-09-09T04:32:05.941Z,28.20
2018-09-09T04:34:36.390Z,29.17
2018-09-09T04:37:06.930Z,27.87
2018-09-09T04:39:37.562Z,24.07
2018-09-09T04:42:08.271Z,27.27
2018-09-09T04:44:38.986Z,21.67
2018-09-09T04:47:09.454Z,20.93
2018-09-09T04:49:40.072Z,19.73
2018-09-09T04:52:10.711Z,15.33
2018-09-09T04:54:41.046Z,16.73
2018-09-09T04:57:11.613Z,17.30
2018-09-09T04:59:42.307Z,19.00
2018-09-09T05:02:12.875Z,15.43
2018-09-09T05:04:44.270Z,15.33
2018-09-09T05:07:14.750Z,13.90
2018-09-09T05:09:45.306Z,15.73
2018-09-09T05:12:15.958Z,14.57
2018-09-09T05:14:46.473Z,14.07
2018-09-09T05:17:16.880Z,13.93
2018-09-09T05:19:48.099Z,14.27
2018-09-09T05:22:18.692Z,11.30
2018-09-09T05:24:49.238Z,17.73
2018-09-09T05:27:19.885Z,14.47
2018-09-09T05:29:50.415Z,13.53
2018-09-09T05:32:21.090Z,11.60
2018-09-09T05:34:51.750Z,15.00
2018-09-09T05:37:22.250Z,27.10
2018-09-09T05:39:52.840Z,31.43
2018-09-09T05:42:23.518Z,26.00
2018-09-09T05:44:54.110Z,15.30
2018-09-09T05:47:24.559Z,11.37
2018-09-09T05:49:55.118Z,11.73
2018-09-09T05:52:25.697Z,12.27
2018-09-09T05:54:56.361Z,13.23
2018-09-09T05:57:26.916Z,12.93
2018-09-09T05:59:57.466Z,13.03
2018-09-09T06:02:27.489Z,28.10
2018-09-09T06:04:57.994Z,12.27
2018-09-09T06:07:28.489Z,17.67
2018-09-09T06:09:59.173Z,23.03
2018-09-09T06:12:29.006Z,13.33
2018-09-09T06:14:59.486Z,12.33
2018-09-09T06:17:29.994Z,12.87
2018-09-09T06:20:00.479Z,11.70
2018-09-09T06:22:31.136Z,14.57
2018-09-09T06:25:02.135Z,14.00
2018-09-09T06:27:32.036Z,13.87
2018-09-09T06:30:02.890Z,11.90
2018-09-09T06:32:33.273Z,13.40
2018-09-09T06:35:03.781Z,15.20
2018-09-09T06:37:34.314Z,15.87
2018-09-09T06:40:04.853Z,12.87
2018-09-09T06:42:35.651Z,15.47
2018-09-09T06:45:06.151Z,14.90
2018-09-09T06:47:36.747Z,17.10
2018-09-09T06:50:07.222Z,14.30
2018-09-09T06:52:37.054Z,15.80
2018-09-09T06:55:07.741Z,16.33
2018-09-09T06:57:38.274Z,17.80
2018-09-09T07:00:09.030Z,15.57
2018-09-09T07:02:39.639Z,14.90
2018-09-09T07:05:10.175Z,17.50
2018-09-09T07:07:39.929Z,15.60
2018-09-09T07:10:10.570Z,14.77
2018-09-09T07:12:41.195Z,17.53
2018-09-09T07:15:11.777Z,18.67
2018-09-09T07:17:42.382Z,13.87
2018-09-09T07:20:12.922Z,14.67
2018-09-09T07:22:43.443Z,16.03
2018-09-09T07:25:13.986Z,17.07
2018-09-09T07:27:44.371Z,16.27
2018-09-09T07:30:14.848Z,18.03
2018-09-09T07:32:45.442Z,14.50
2018-09-09T07:35:15.885Z,14.50
2018-09-09T07:37:46.386Z,15.67
2018-09-09T07:40:16.963Z,14.93
2018-09-09T07:42:47.457Z,14.67
2018-09-09T07:45:19.310Z,15.20
2018-09-09T07:47:49.987Z,14.93
2018-09-09T07:50:20.525Z,14.90
2018-09-09T07:52:50.902Z,17.30
2018-09-09T07:55:21.483Z,17.00
2018-09-09T07:57:52.834Z,16.20
2018-09-09T08:00:22.712Z,16.23
2018-09-09T08:02:52.955Z,15.33
2018-09-09T08:05:23.361Z,16.03
2018-09-09T08:07:53.691Z,15.57
2018-09-09T08:10:24.194Z,14.67
2018-09-09T08:12:54.723Z,15.30
2018-09-09T08:15:25.198Z,15.40
2018-09-09T08:17:55.749Z,14.83
2018-09-09T08:20:26.243Z,15.80
2018-09-09T08:22:56.686Z,15.30
2018-09-09T08:28:02.539Z,13.67
2018-09-09T08:30:32.938Z,14.80
2018-09-09T08:33:03.519Z,13.83
2018-09-09T08:35:34.400Z,15.07
2018-09-09T08:38:04.999Z,13.63
2018-09-09T08:40:35.401Z,12.47
2018-09-09T08:43:05.887Z,12.53
2018-09-09T08:45:36.331Z,12.07
2018-09-09T08:48:06.253Z,12.30
2018-09-09T08:50:36.690Z,12.30
2018-09-09T08:53:07.211Z,11.97
2018-09-09T08:55:37.244Z,10.83
2018-09-09T08:58:07.714Z,12.97
2018-09-09T09:00:38.257Z,13.57
2018-09-09T09:03:08.784Z,11.13
2018-09-09T09:05:39.396Z,10.23
2018-09-09T09:08:09.856Z,8.73
2018-09-09T09:10:41.338Z,9.17
2018-09-09T09:13:12.130Z,10.03
2018-09-09T09:15:42.728Z,10.67
2018-09-09T09:18:13.205Z,8.90
2018-09-09T09:20:44.598Z,9.60
2018-09-09T09:23:15.114Z,9.83
2018-09-09T09:25:50.223Z,9.80
2018-09-09T09:28:21.487Z,9.60
2018-09-09T09:30:52.650Z,9.07
2018-09-09T09:33:23.507Z,10.50
2018-09-09T09:35:54.798Z,8.37
2018-09-09T09:38:25.326Z,9.37
2018-09-09T09:40:55.828Z,7.90
2018-09-09T09:43:26.384Z,7.97
2018-09-09T09:45:56.914Z,8.07
2018-09-09T09:48:27.609Z,8.93
2018-09-09T09:50:57.969Z,9.10
2018-09-09T09:53:28.545Z,11.17
2018-09-09T09:55:59.103Z,9.07
2018-09-09T09:58:29.690Z,7.30
2018-09-09T10:01:01.475Z,5.37
2018-09-09T10:03:32.041Z,6.90
2018-09-09T10:06:02.633Z,6.40
2018-09-09T10:08:33.178Z,6.23
2018-09-09T10:11:04.154Z,6.63
2018-09-09T10:13:34.781Z,6.00
2018-09-09T10:16:05.114Z,4.97
2018-09-09T10:18:35.618Z,7.27
2018-09-09T10:21:06.123Z,6.20
2018-09-09T10:23:36.823Z,5.63
2018-09-09T10:26:07.357Z,4.73
2018-09-09T10:28:37.817Z,4.33
2018-09-09T10:31:08.407Z,6.00
2018-09-09T10:33:39.000Z,4.17
2018-09-09T10:36:09.393Z,4.47
2018-09-09T10:38:40.123Z,4.60
2018-09-09T10:41:10.503Z,4.20
2018-09-09T10:43:41.189Z,5.03
2018-09-09T10:46:12.009Z,4.43
2018-09-09T10:48:42.469Z,4.27
2018-09-09T10:51:12.950Z,4.27
2018-09-09T10:53:43.563Z,5.30
2018-09-09T10:56:13.412Z,5.07
2018-09-09T10:58:44.027Z,6.13
2018-09-09T11:01:14.616Z,5.00
2018-09-09T11:03:45.175Z,3.50
2018-09-09T11:06:15.022Z,5.07
2018-09-09T11:08:45.491Z,5.33
2018-09-09T11:11:16.024Z,4.23
2018-09-09T11:13:46.635Z,3.30
2018-09-09T11:16:17.237Z,4.93
2018-09-09T11:18:47.635Z,3.80
2018-09-09T11:21:18.236Z,3.40
2018-09-09T11:23:48.998Z,3.43
2018-09-09T11:26:19.451Z,3.90
2018-09-09T11:28:50.411Z,3.37
2018-09-09T11:31:21.113Z,4.70
2018-09-09T11:33:51.616Z,3.63
2018-09-09T11:36:22.240Z,3.03
2018-09-09T11:38:52.282Z,2.57
2018-09-09T11:41:22.725Z,3.23
2018-09-09T11:43:53.276Z,3.60
2018-09-09T11:46:23.914Z,4.40
2018-09-09T11:48:54.690Z,6.20
2018-09-09T11:51:25.130Z,4.33
2018-09-09T11:53:56.255Z,5.07
2018-09-09T11:56:26.199Z,3.27
2018-09-09T11:58:56.814Z,4.63
2018-09-09T12:01:27.315Z,2.90
2018-09-09T12:03:58.044Z,3.33
2018-09-09T12:06:28.671Z,3.37
2018-09-09T12:08:59.126Z,3.57
2018-09-09T12:11:29.601Z,2.60
2018-09-09T12:14:01.047Z,3.90
2018-09-09T12:16:31.622Z,3.23
2018-09-09T12:19:01.766Z,2.80
2018-09-09T12:21:32.334Z,3.30
2018-09-09T12:24:03.699Z,2.80
2018-09-09T12:26:34.113Z,3.20
2018-09-09T12:29:04.797Z,3.47
2018-09-09T12:31:35.213Z,3.37
2018-09-09T12:34:05.729Z,3.02
2018-09-09T12:36:36.158Z,4.95
2018-09-09T12:39:08.611Z,3.20
2018-09-09T12:41:39.531Z,4.25
2018-09-09T12:44:15.057Z,2.80
2018-09-09T12:46:50.378Z,3.85
2018-09-09T12:49:21.003Z,4.90
2018-09-09T12:51:51.559Z,3.47
2018-09-09T12:54:22.026Z,2.92
2018-09-09T12:56:52.612Z,3.30
2018-09-09T12:59:23.776Z,3.12
2018-09-09T13:01:54.263Z,3.22
2018-09-09T13:04:24.037Z,3.40
2018-09-09T13:06:54.515Z,3.22
2018-09-09T13:09:25.619Z,3.60
2018-09-09T13:11:56.166Z,3.90
2018-09-09T13:14:26.777Z,2.87
2018-09-09T13:16:57.463Z,3.53
2018-09-09T13:19:28.267Z,2.90
2018-09-09T13:21:58.951Z,3.27
2018-09-09T13:24:29.724Z,3.50
2018-09-09T13:27:00.398Z,4.00
2018-09-09T13:29:30.887Z,3.63
2018-09-09T13:32:01.367Z,5.40
2018-09-09T13:34:31.865Z,3.33
2018-09-09T13:37:02.449Z,3.53
2018-09-09T13:39:33.359Z,4.10
2018-09-09T13:42:03.798Z,3.30
2018-09-09T13:44:34.383Z,4.50
2018-09-09T13:47:04.951Z,3.73
2018-09-09T13:49:35.593Z,4.10
2018-09-09T13:52:06.343Z,3.23
2018-09-09T13:54:36.969Z,3.33
2018-09-09T13:57:07.597Z,6.13
2018-09-09T13:59:38.129Z,4.67
2018-09-09T14:02:08.663Z,3.20
2018-09-09T14:04:44.675Z,3.67
2018-09-09T14:07:15.835Z,4.03
2018-09-09T14:09:46.478Z,7.30
2018-09-09T14:12:17.032Z,3.47
2018-09-09T14:14:47.543Z,3.13
2018-09-09T14:17:17.906Z,3.33
2018-09-09T14:19:48.610Z,3.27
2018-09-09T14:22:20.946Z,3.10
2018-09-09T14:24:52.284Z,2.60
2018-09-09T14:27:23.171Z,3.10
2018-09-09T14:29:53.694Z,3.73
2018-09-09T14:32:24.167Z,3.43
2018-09-09T14:34:54.726Z,3.10
2018-09-09T14:37:25.926Z,3.10
2018-09-09T14:39:56.426Z,3.43
2018-09-09T14:42:27.008Z,2.87
2018-09-09T14:44:57.600Z,3.30
2018-09-09T14:47:29.155Z,4.83
2018-09-09T14:49:59.691Z,5.50
2018-09-09T14:52:29.556Z,3.90
2018-09-09T15:00:47.025Z,6.20
2018-09-09T15:03:17.433Z,4.28
2018-09-09T15:05:48.063Z,3.08
2018-09-09T15:08:18.457Z,4.50
2018-09-09T15:10:48.904Z,3.15
2018-09-09T15:13:19.206Z,3.33
2018-09-09T15:15:49.620Z,4.92
2018-09-09T15:18:20.236Z,4.30
2018-09-09T15:20:50.713Z,2.92
2018-09-09T15:23:21.184Z,3.00
2018-09-09T15:25:51.598Z,3.02
2018-09-09T15:28:22.046Z,3.02
2018-09-09T15:30:52.522Z,2.95
2018-09-09T15:33:23.362Z,4.55
2018-09-09T15:35:53.624Z,3.17
2018-09-09T15:38:23.893Z,3.37
2018-09-09T15:40:54.192Z,3.80
2018-09-09T15:43:24.527Z,3.30
2018-09-09T15:45:54.873Z,3.25
2018-09-09T15:48:25.180Z,3.45
2018-09-09T15:50:55.588Z,3.33
2018-09-09T15:53:26.000Z,4.03
2018-09-09T15:55:56.344Z,3.67
2018-09-09T15:58:26.783Z,5.13
2018-09-09T16:00:57.122Z,3.97
2018-09-09T16:03:36.232Z,5.40
2018-09-09T16:06:07.072Z,3.30
2018-09-09T16:08:37.308Z,5.37
2018-09-09T16:11:07.099Z,7.57
2018-09-09T16:13:36.719Z,9.97
2018-09-09T16:16:07.073Z,6.43
2018-09-09T16:18:37.559Z,6.37
2018-09-09T16:21:08.134Z,14.10
2018-09-09T16:23:38.500Z,4.50
2018-09-09T16:26:08.921Z,22.40
2018-09-09T16:28:39.205Z,5.87
2018-09-09T16:31:09.763Z,5.37
2018-09-09T16:33:40.316Z,10.93
2018-09-09T16:36:10.676Z,36.73
2018-09-09T16:38:41.041Z,49.17
2018-09-09T16:41:11.543Z,51.43
2018-09-09T16:43:41.825Z,50.07
2018-09-09T16:46:11.651Z,30.67
2018-09-09T16:48:42.080Z,26.80
2018-09-09T16:51:11.811Z,15.40
2018-09-09T16:53:42.218Z,23.53
2018-09-09T16:56:12.050Z,22.90
2018-09-09T16:58:42.531Z,20.77
2018-09-09T17:01:12.844Z,15.37
2018-09-09T17:03:43.284Z,21.07
2018-09-09T17:06:13.600Z,15.57
2018-09-09T17:08:43.989Z,15.57
2018-09-09T17:11:14.492Z,14.90
2018-09-09T17:13:44.915Z,11.03
2018-09-09T17:16:15.336Z,11.80
2018-09-09T17:18:45.067Z,31.07
2018-09-09T17:21:15.528Z,42.17
2018-09-09T17:23:45.920Z,18.40
2018-09-09T17:26:16.461Z,38.33
2018-09-09T17:28:46.861Z,21.83
2018-09-09T17:31:17.348Z,15.67
2018-09-09T17:33:48.405Z,23.60
2018-09-09T17:36:18.233Z,15.53
2018-09-09T17:38:49.320Z,13.77
2018-09-09T17:41:19.828Z,24.83
2018-09-09T17:43:50.236Z,17.50
2018-09-09T17:46:24.484Z,18.67
2018-09-09T17:48:55.079Z,31.10
2018-09-09T17:51:28.476Z,35.30
2018-09-09T17:53:58.274Z,20.60
2018-09-09T17:59:06.317Z,16.50
2018-09-09T18:01:38.808Z,14.20
2018-09-09T18:04:08.980Z,18.67
2018-09-09T18:09:38.314Z,14.73
2018-09-09T18:12:09.861Z,16.30
2018-09-09T18:14:41.224Z,11.90
2018-09-09T18:17:14.617Z,19.27
2018-09-09T18:19:45.273Z,14.00
2018-09-09T18:22:15.789Z,11.23
2018-09-09T18:24:46.289Z,11.77
2018-09-09T18:27:16.107Z,8.83
2018-09-09T18:29:46.446Z,5.20
2018-09-09T18:32:24.557Z,10.70
2018-09-09T18:35:00.465Z,5.73
2018-09-09T18:37:36.248Z,7.53
2018-09-09T18:40:06.773Z,6.50
2018-09-09T18:45:13.294Z,9.47
2018-09-09T18:47:43.788Z,6.07
2018-09-09T18:50:14.273Z,4.67
2018-09-09T18:55:24.488Z,6.27
2018-09-09T18:57:54.827Z,8.10
2018-09-09T19:00:25.317Z,8.73
2018-09-09T19:02:56.630Z,7.10
2018-09-09T19:05:32.228Z,58.67
2018-09-09T19:08:02.454Z,21.30
2018-09-09T19:10:35.474Z,14.13
2018-09-09T19:15:41.536Z,7.83
2018-09-09T19:18:18.513Z,6.70
2018-09-09T19:20:54.332Z,18.07
2018-09-09T19:23:24.834Z,12.53
2018-09-09T19:25:55.235Z,11.40
2018-09-09T19:28:25.872Z,54.83
2018-09-09T19:30:56.483Z,25.37
2018-09-09T19:33:27.216Z,25.73
2018-09-09T19:35:57.809Z,24.60
2018-09-09T19:38:28.445Z,29.87
2018-09-09T19:40:58.956Z,31.23
2018-09-09T19:43:29.598Z,32.93
2018-09-09T19:46:00.217Z,16.27
2018-09-09T19:48:30.828Z,19.30
2018-09-09T19:51:01.702Z,16.07
2018-09-09T19:53:32.929Z,15.63
2018-09-09T19:56:03.634Z,10.27
2018-09-09T19:58:34.289Z,12.60
2018-09-09T20:01:04.841Z,8.93
2018-09-09T20:03:35.448Z,9.93
2018-09-09T20:06:06.492Z,8.17
2018-09-09T20:08:37.388Z,9.30
2018-09-09T20:11:08.044Z,9.20
2018-09-09T20:13:38.536Z,8.10
2018-09-09T20:16:09.025Z,8.00
2018-09-09T20:18:39.589Z,8.13
2018-09-09T20:21:10.265Z,9.83
2018-09-09T20:23:40.809Z,8.90
2018-09-09T20:26:11.424Z,7.60
2018-09-09T20:28:42.573Z,8.27
2018-09-09T20:31:13.233Z,12.20
2018-09-09T20:33:43.745Z,10.13
2018-09-09T20:36:14.541Z,10.23
2018-09-09T20:38:45.112Z,8.70
2018-09-09T20:41:15.644Z,9.87
2018-09-09T20:43:46.048Z,8.57
2018-09-09T20:46:16.572Z,8.13
2018-09-09T20:48:47.109Z,7.57
2018-09-09T20:51:17.503Z,8.53
2018-09-09T20:53:47.981Z,8.63
2018-09-09T20:56:18.529Z,7.37
2018-09-09T20:58:49.012Z,9.40
2018-09-09T21:01:19.573Z,7.00
2018-09-09T21:03:50.140Z,9.97
2018-09-09T21:06:20.701Z,7.27
2018-09-09T21:08:51.289Z,8.40
2018-09-09T21:11:21.203Z,9.33
2018-09-09T21:13:51.644Z,9.47
2018-09-09T21:16:22.125Z,7.50
2018-09-09T21:18:52.705Z,7.80
2018-09-09T21:21:23.376Z,8.07
2018-09-09T21:23:54.017Z,8.57
2018-09-09T21:26:24.636Z,8.57
2018-09-09T21:28:55.119Z,7.97
2018-09-09T21:31:25.568Z,10.13
2018-09-09T21:33:56.027Z,8.63
2018-09-09T21:36:26.625Z,6.70
2018-09-09T21:38:57.269Z,10.57
2018-09-09T21:41:27.941Z,7.43
2018-09-09T21:43:58.291Z,6.60
2018-09-09T21:46:28.776Z,8.80
2018-09-09T21:48:59.373Z,8.43
2018-09-09T21:51:29.884Z,8.83
2018-09-09T21:54:00.280Z,8.03
2018-09-09T21:56:30.879Z,7.43
2018-09-09T21:59:01.391Z,8.03
2018-09-09T22:01:36.905Z,7.97
2018-09-09T22:04:07.644Z,7.57
2018-09-09T22:06:38.043Z,8.80
2018-09-09T22:09:09.984Z,10.20
2018-09-09T22:11:40.452Z,9.90
2018-09-09T22:14:10.292Z,8.73
2018-09-09T22:16:40.876Z,9.07
2018-09-09T22:19:11.515Z,9.10
2018-09-09T22:21:42.113Z,7.73
2018-09-09T22:24:12.408Z,9.20
2018-09-09T22:26:42.628Z,11.03
2018-09-09T22:29:13.269Z,8.90
2018-09-09T22:31:43.922Z,8.63
2018-09-09T22:34:14.713Z,9.20
2018-09-09T22:36:45.295Z,9.30
2018-09-09T22:39:15.785Z,8.63
2018-09-09T22:41:46.449Z,9.33
2018-09-09T22:44:16.956Z,8.30
2018-09-09T22:46:47.488Z,9.60
2018-09-09T22:49:18.016Z,7.87
2018-09-09T22:51:48.427Z,9.67
2018-09-09T22:54:20.241Z,7.97
2018-09-09T22:56:50.748Z,8.60
2018-09-09T22:59:21.273Z,9.83
2018-09-09T23:01:51.779Z,8.70
2018-09-09T23:04:22.284Z,7.70
2018-09-09T23:06:52.865Z,7.07
2018-09-09T23:09:23.498Z,7.70
2018-09-09T23:11:53.930Z,10.63
2018-09-09T23:14:24.414Z,8.40
2018-09-09T23:16:54.995Z,7.50
2018-09-09T23:19:25.553Z,8.00
2018-09-09T23:21:56.257Z,8.23
2018-09-09T23:24:26.697Z,7.70
2018-09-09T23:26:56.630Z,10.20
2018-09-09T23:29:27.027Z,7.33
2018-09-09T23:31:57.457Z,8.57
2018-09-09T23:34:27.907Z,7.77
2018-09-09T23:36:57.738Z,8.60
2018-09-09T23:39:28.280Z,7.73
2018-09-09T23:41:59.343Z,7.33
2018-09-09T23:44:32.936Z,8.70
2018-09-09T23:47:03.460Z,8.97
2018-09-09T23:49:33.920Z,7.47
2018-09-09T23:52:04.420Z,7.90
2018-09-09T23:54:34.896Z,11.87
2018-09-09T23:57:05.357Z,8.80
2018-09-09T23:59:35.889Z,8.97
